Time;durP1;ratioP1;P1;durP2;ratioP2;P2;SDS_P1;SDS_P2;PMS_P1;PMS_P2;Temp;Humidity;BMP_temperature;BMP_pressure;BME280_temperature;BME280_humidity;BME280_pressure;Samples;Min_cycle;Max_cycle;Signal;HPM_P1;HPM_P2
2022/11/10 00:00:10;;;;;;;13.65;2.08;;;;;;;8.69;100.00;101543.91;5095823;28;20035;-84
2022/11/10 00:02:36;;;;;;;16.87;2.20;;;;;;;8.66;100.00;101549.69;5129258;28;20082;-85
2022/11/10 00:05:02;;;;;;;14.40;2.53;;;;;;;8.66;100.00;101552.38;5112844;28;20169;-85
2022/11/10 00:07:28;;;;;;;15.43;2.27;;;;;;;8.64;100.00;101554.44;5113869;28;20044;-85
2022/11/10 00:09:54;;;;;;;16.30;2.50;;;;;;;8.62;100.00;101559.19;5113344;28;20044;-84
2022/11/10 00:12:22;;;;;;;9.93;2.22;;;;;;;8.61;100.00;101558.34;5129779;28;20040;-85
2022/11/10 00:17:34;;;;;;;10.40;2.00;;;;;;;8.60;100.00;101565.59;5113964;28;20564;-85
2022/11/10 00:20:00;;;;;;;16.43;2.50;;;;;;;8.54;100.00;101555.53;5113790;28;20043;-85
2022/11/10 00:22:25;;;;;;;13.63;2.80;;;;;;;8.53;100.00;101556.59;5112419;28;20044;-84
2022/11/10 00:24:51;;;;;;;11.23;2.40;;;;;;;8.55;100.00;101551.81;5112442;28;20066;-85
2022/11/10 00:27:16;;;;;;;13.53;2.57;;;;;;;8.52;100.00;101548.63;5112414;28;20032;-85
2022/11/10 00:29:42;;;;;;;13.60;2.27;;;;;;;8.49;100.00;101559.81;5112407;28;20036;-84
2022/11/10 00:32:08;;;;;;;12.27;3.03;;;;;;;8.46;100.00;101568.31;5130878;27;20486;-85
2022/11/10 00:34:35;;;;;;;13.98;2.63;;;;;;;8.45;100.00;101577.47;5117323;28;20036;-85
2022/11/10 00:37:01;;;;;;;12.00;2.30;;;;;;;8.46;100.00;101571.00;5130992;27;20106;-85
2022/11/10 00:39:26;;;;;;;16.00;2.37;;;;;;;8.45;100.00;101578.28;5117705;28;20043;-85
2022/11/10 00:41:52;;;;;;;14.27;2.13;;;;;;;8.47;100.00;101595.16;5099189;28;20459;-84
2022/11/10 00:44:20;;;;;;;10.60;2.60;;;;;;;8.47;100.00;101572.69;5115850;28;20036;-85
2022/11/10 00:46:45;;;;;;;18.50;2.90;;;;;;;8.47;100.00;101583.50;5115746;28;20064;-84
2022/11/10 00:49:11;;;;;;;15.47;2.17;;;;;;;8.45;100.00;101593.69;5133748;27;20077;-85
2022/11/10 00:51:37;;;;;;;17.10;2.50;;;;;;;8.41;100.00;101596.72;5133439;27;20044;-85
2022/11/10 00:54:02;;;;;;;14.07;2.60;;;;;;;8.45;100.00;101596.38;5116202;28;20039;-85
2022/11/10 00:56:27;;;;;;;11.60;2.53;;;;;;;8.47;100.00;101597.88;5116708;28;20433;-85
2022/11/10 00:58:53;;;;;;;14.43;2.08;;;;;;;8.45;100.00;101590.97;5115778;28;20051;-85
2022/11/10 01:01:20;;;;;;;16.13;2.17;;;;;;;8.48;100.00;101596.84;5116060;28;20032;-85
2022/11/10 01:03:46;;;;;;;11.57;2.28;;;;;;;8.51;100.00;101593.78;5132878;27;20031;-85
2022/11/10 01:06:14;;;;;;;9.60;2.67;;;;;;;8.48;100.00;101583.31;5117084;28;20036;-85
2022/11/10 01:08:41;;;;;;;21.02;2.88;;;;;;;8.47;100.00;101597.88;5116629;28;20036;-85
2022/11/10 01:11:18;;;;;;;13.35;2.83;;;;;;;8.45;100.00;101593.69;5132697;27;20042;-85
2022/11/10 01:13:44;;;;;;;19.75;2.53;;;;;;;8.46;100.00;101595.34;5133516;27;20077;-85
2022/11/10 01:16:13;;;;;;;14.37;2.40;;;;;;;8.49;100.00;101598.53;5115827;28;20464;-86
2022/11/10 01:18:42;;;;;;;15.10;2.28;;;;;;;8.50;100.00;101592.09;5115648;28;20478;-85
2022/11/10 01:21:08;;;;;;;17.42;2.20;;;;;;;8.49;100.00;101606.66;5116453;28;20036;-85
2022/11/10 01:23:34;;;;;;;13.80;2.30;;;;;;;8.48;100.00;101614.94;5132426;27;20031;-85
2022/11/10 01:26:04;;;;;;;14.90;2.63;;;;;;;8.50;100.00;101621.00;5116247;27;20395;-85
2022/11/10 01:28:31;;;;;;;15.23;2.40;;;;;;;8.55;100.00;101626.72;5114906;28;20028;-85
2022/11/10 01:31:01;;;;;;;15.88;2.40;;;;;;;8.50;100.00;101635.34;5132399;27;20387;-85
2022/11/10 01:33:32;;;;;;;18.95;1.90;;;;;;;8.47;100.00;101635.72;5115086;28;20032;-85
2022/11/10 01:35:58;;;;;;;13.70;2.17;;;;;;;8.45;100.00;101640.50;5133217;27;20032;-85
2022/11/10 01:38:28;;;;;;;14.57;1.97;;;;;;;8.43;100.00;101631.69;5131944;27;20396;-85
2022/11/10 01:40:55;;;;;;;13.20;2.20;;;;;;;8.44;100.00;101636.09;5131851;27;20046;-85
2022/11/10 01:43:29;;;;;;;10.50;2.15;;;;;;;8.48;100.00;101640.13;5131637;27;20154;-85
2022/11/10 01:45:59;;;;;;;12.52;2.08;;;;;;;8.43;100.00;101634.41;5116064;28;20031;-85
2022/11/10 01:48:42;;;;;;;11.87;1.87;;;;;;;8.42;100.00;101640.81;5132319;27;20081;-85
2022/11/10 01:51:23;;;;;;;12.68;2.20;;;;;;;8.38;100.00;101634.91;5114896;28;20042;-85
2022/11/10 01:53:53;;;;;;;14.05;2.60;;;;;;;8.35;100.00;101632.59;5114863;28;20097;-85
2022/11/10 01:56:20;;;;;;;13.88;2.40;;;;;;;8.39;100.00;101633.91;5115033;28;20135;-85
2022/11/10 01:58:59;;;;;;;12.98;2.40;;;;;;;8.38;100.00;101632.22;5132095;27;20032;-85
2022/11/10 02:01:28;;;;;;;17.90;2.33;;;;;;;8.45;100.00;101639.66;5115583;28;20125;-85
2022/11/10 02:03:57;;;;;;;20.63;2.97;;;;;;;8.51;100.00;101626.22;5097298;28;20123;-85
2022/11/10 02:06:29;;;;;;;13.45;2.30;;;;;;;8.45;100.00;101626.97;5114546;28;20081;-85
2022/11/10 02:08:58;;;;;;;15.13;2.47;;;;;;;8.43;100.00;101637.94;5116058;28;20114;-85
2022/11/10 02:11:30;;;;;;;14.80;2.28;;;;;;;8.40;100.00;101629.31;5131528;27;20108;-85
2022/11/10 02:13:56;;;;;;;12.20;1.87;;;;;;;8.45;100.00;101637.78;5131546;27;20131;-85
2022/11/10 02:16:22;;;;;;;16.88;2.47;;;;;;;8.46;100.00;101628.66;5114690;28;20144;-85
2022/11/10 02:18:47;;;;;;;15.63;2.90;;;;;;;8.51;100.00;101638.94;5114240;28;20380;-85
2022/11/10 02:21:16;;;;;;;18.42;2.13;;;;;;;8.48;100.00;101642.81;5131693;27;20266;-84
2022/11/10 02:23:44;;;;;;;18.05;2.72;;;;;;;8.47;100.00;101643.84;5131316;27;20051;-85
2022/11/10 02:26:10;;;;;;;15.00;2.35;;;;;;;8.42;100.00;101643.53;5131324;27;20035;-85
2022/11/10 02:28:36;;;;;;;13.15;2.15;;;;;;;8.42;100.00;101646.22;5114192;28;20071;-85
2022/11/10 02:31:03;;;;;;;11.07;2.75;;;;;;;8.40;100.00;101653.66;5115406;28;20462;-85
2022/11/10 02:33:29;;;;;;;17.10;2.78;;;;;;;8.37;100.00;101659.44;5131137;27;20039;-85
2022/11/10 02:35:55;;;;;;;16.02;1.85;;;;;;;8.39;100.00;101674.47;5113987;28;20043;-85
2022/11/10 02:38:20;;;;;;;15.73;2.50;;;;;;;8.36;100.00;101672.13;5113388;28;20062;-84
2022/11/10 02:40:48;;;;;;;15.50;2.50;;;;;;;8.37;100.00;101683.78;5113926;28;20044;-85
2022/11/10 02:43:16;;;;;;;14.13;2.17;;;;;;;8.34;100.00;101690.41;5114082;28;20035;-85
2022/11/10 02:45:45;;;;;;;10.85;1.90;;;;;;;8.33;100.00;101694.13;5130936;27;20490;-84
2022/11/10 02:48:12;;;;;;;17.75;2.78;;;;;;;8.35;100.00;101700.19;5113711;28;20039;-85
2022/11/10 02:50:38;;;;;;;15.85;2.30;;;;;;;8.32;100.00;101697.84;5130808;27;20035;-85
2022/11/10 02:53:03;;;;;;;19.10;1.93;;;;;;;8.27;100.00;101702.97;5130341;27;20039;-84
2022/11/10 02:55:29;;;;;;;17.00;1.80;;;;;;;8.24;100.00;101703.31;5112775;28;20042;-85
2022/11/10 02:57:54;;;;;;;18.27;2.47;;;;;;;8.22;100.00;101695.38;5113163;28;20040;-85
2022/11/10 03:00:20;;;;;;;13.03;2.07;;;;;;;8.21;100.00;101692.88;5130617;27;20035;-85
2022/11/10 03:02:46;;;;;;;14.50;1.88;;;;;;;8.23;100.00;101685.41;5114533;28;20126;-85
2022/11/10 03:05:11;;;;;;;16.83;2.20;;;;;;;8.16;100.00;101682.56;5113502;28;20042;-85
2022/11/10 03:07:40;;;;;;;18.02;2.75;;;;;;;8.17;100.00;101688.84;5113548;28;20058;-85
2022/11/10 03:10:06;;;;;;;17.83;2.83;;;;;;;8.14;100.00;101690.03;5114440;28;20050;-85
2022/11/10 03:12:32;;;;;;;22.05;2.20;;;;;;;8.11;100.00;101701.19;5130771;27;20051;-85
2022/11/10 03:14:57;;;;;;;10.80;1.63;;;;;;;8.05;100.00;101702.75;5114241;28;20031;-85
2022/11/10 03:17:23;;;;;;;18.67;2.40;;;;;;;8.04;100.00;101714.56;5113358;28;20072;-85
2022/11/10 03:19:49;;;;;;;15.63;2.60;;;;;;;8.08;100.00;101709.66;5130008;27;20031;-85
2022/11/10 03:22:14;;;;;;;20.17;1.98;;;;;;;8.09;100.00;101703.25;5129931;27;20154;-85
2022/11/10 03:24:40;;;;;;;13.82;2.30;;;;;;;8.07;100.00;101708.84;5130233;27;20391;-85
2022/11/10 03:27:05;;;;;;;18.57;2.67;;;;;;;8.02;100.00;101718.47;5113817;28;20041;-85
2022/11/10 03:29:31;;;;;;;19.83;2.50;;;;;;;7.96;100.00;101721.88;5113818;28;20479;-85
2022/11/10 03:31:56;;;;;;;12.70;1.85;;;;;;;7.92;100.00;101725.97;5113756;28;20048;-85
2022/11/10 03:34:22;;;;;;;18.10;2.70;;;;;;;7.90;100.00;101723.44;5130171;27;20476;-85
2022/11/10 03:36:47;;;;;;;12.57;2.80;;;;;;;7.88;100.00;101738.97;5112932;28;20027;-84
2022/11/10 03:39:13;;;;;;;12.40;2.40;;;;;;;7.82;100.00;101732.41;5112822;28;20044;-85
2022/11/10 03:41:38;;;;;;;15.07;2.13;;;;;;;7.79;100.00;101740.88;5112532;28;20476;-85
2022/11/10 03:44:04;;;;;;;18.10;3.00;;;;;;;7.87;100.00;101748.13;5112537;28;20036;-84
2022/11/10 03:46:29;;;;;;;9.73;2.10;;;;;;;7.82;100.00;101748.63;5095893;28;20035;-85
2022/11/10 03:48:55;;;;;;;13.40;2.20;;;;;;;7.82;100.00;101764.00;5112402;28;20379;-84
2022/11/10 03:51:23;;;;;;;13.43;2.25;;;;;;;7.78;100.00;101751.84;5112783;28;20400;-84
2022/11/10 03:53:48;;;;;;;12.80;2.40;;;;;;;7.74;100.00;101756.78;5113851;28;20071;-84
2022/11/10 03:56:14;;;;;;;19.65;2.35;;;;;;;7.76;100.00;101759.28;5112931;28;20471;-85
2022/11/10 03:58:40;;;;;;;15.90;2.10;;;;;;;7.73;100.00;101771.28;5112651;28;20055;-85
2022/11/10 04:01:05;;;;;;;15.23;2.15;;;;;;;7.83;100.00;101773.78;5129677;28;20097;-84
2022/11/10 04:03:31;;;;;;;19.43;2.63;;;;;;;7.74;100.00;101770.28;5114029;28;20059;-85
2022/11/10 04:08:58;;;;;;;19.75;2.45;;;;;;;7.62;100.00;101768.94;5118660;28;20047;-85
2022/11/10 04:16:53;;;;;;;21.50;3.00;;;;;;;7.55;100.00;101785.84;5118572;28;20043;-85
2022/11/10 04:19:18;;;;;;;20.93;2.77;;;;;;;7.57;100.00;101782.97;5100145;28;20036;-85
2022/11/10 04:21:44;;;;;;;17.67;2.50;;;;;;;7.59;100.00;101790.91;5117465;28;20036;-85
2022/11/10 04:24:10;;;;;;;18.63;2.90;;;;;;;7.60;100.00;101788.03;5116838;28;20058;-85
2022/11/10 04:26:39;;;;;;;22.67;3.05;;;;;;;7.64;100.00;101799.34;5116486;28;20050;-84
2022/11/10 04:29:10;;;;;;;20.88;3.17;;;;;;;7.64;100.00;101804.75;5116301;28;20093;-84
2022/11/10 04:31:39;;;;;;;18.10;2.00;;;;;;;7.62;100.00;101809.47;5116455;28;20035;-84
2022/11/10 04:34:12;;;;;;;16.00;2.47;;;;;;;7.67;100.00;101802.53;5116333;28;20035;-85
2022/11/10 04:36:40;;;;;;;20.55;2.78;;;;;;;7.66;100.00;101814.38;5116615;28;20043;-85
2022/11/10 04:39:07;;;;;;;17.08;2.97;;;;;;;7.71;100.00;101817.38;5115017;28;20058;-85
2022/11/10 04:41:33;;;;;;;15.50;2.78;;;;;;;7.68;100.00;101822.31;5116286;28;20138;-85
2022/11/10 04:43:59;;;;;;;14.13;3.13;;;;;;;7.70;100.00;101820.25;5116209;28;20077;-84
2022/11/10 04:46:39;;;;;;;16.70;2.63;;;;;;;7.68;100.00;101822.31;5133296;27;20467;-84
2022/11/10 04:49:06;;;;;;;11.73;1.65;;;;;;;7.67;100.00;101831.41;5117395;28;20040;-84
2022/11/10 04:51:35;;;;;;;20.07;2.97;;;;;;;7.62;100.00;101834.63;5098146;28;20050;-84
2022/11/10 04:54:02;;;;;;;16.63;2.65;;;;;;;7.64;100.00;101839.88;5132981;27;20038;-85
2022/11/10 04:56:28;;;;;;;19.17;2.45;;;;;;;7.64;100.00;101839.88;5133024;27;20084;-85
2022/11/10 04:58:54;;;;;;;14.73;1.83;;;;;;;7.64;100.00;101845.25;5116084;28;20130;-85
2022/11/10 05:01:22;;;;;;;16.83;2.35;;;;;;;7.63;100.00;101857.06;5115524;28;20488;-84
2022/11/10 05:03:49;;;;;;;20.40;2.80;;;;;;;7.56;100.00;101859.63;5132923;27;20043;-85
2022/11/10 05:06:15;;;;;;;15.50;2.75;;;;;;;7.55;100.00;101853.38;5115479;28;20036;-84
2022/11/10 05:08:43;;;;;;;18.30;2.60;;;;;;;7.54;100.00;101850.84;5133182;27;20479;-84
2022/11/10 05:11:09;;;;;;;27.10;3.35;;;;;;;7.58;100.00;101862.16;5115309;28;20500;-84
2022/11/10 05:13:35;;;;;;;29.95;3.00;;;;;;;7.54;100.00;101867.91;5115801;28;20058;-84
2022/11/10 05:16:01;;;;;;;17.08;2.25;;;;;;;7.54;100.00;101873.31;5115800;28;20471;-85
2022/11/10 05:18:29;;;;;;;17.83;2.70;;;;;;;7.57;100.00;101876.66;5114863;28;20458;-85
2022/11/10 05:20:54;;;;;;;19.83;2.60;;;;;;;7.55;100.00;101866.88;5115421;28;20036;-85
2022/11/10 05:23:38;;;;;;;17.07;2.40;;;;;;;7.52;100.00;101875.31;5115417;28;20036;-84
2022/11/10 05:26:05;;;;;;;16.30;2.42;;;;;;;7.48;100.00;101878.53;5116247;28;20443;-85
2022/11/10 05:28:32;;;;;;;14.02;2.40;;;;;;;7.43;100.00;101878.22;5132363;27;20468;-84
2022/11/10 05:30:57;;;;;;;11.85;2.40;;;;;;;7.43;100.00;101875.50;5132128;27;20526;-85
2022/11/10 05:33:23;;;;;;;17.90;3.03;;;;;;;7.39;100.00;101877.69;5117127;28;20047;-85
2022/11/10 05:35:49;;;;;;;20.00;2.23;;;;;;;7.36;100.00;101870.75;5115633;28;20058;-85
2022/11/10 05:38:15;;;;;;;20.23;2.40;;;;;;;7.38;100.00;101873.28;5131784;27;20086;-85
2022/11/10 05:40:40;;;;;;;17.88;2.83;;;;;;;7.35;100.00;101868.22;5097841;28;20480;-85
2022/11/10 05:43:06;;;;;;;16.80;2.90;;;;;;;7.30;100.00;101857.09;5097689;28;20049;-85
2022/11/10 05:45:32;;;;;;;19.30;2.38;;;;;;;7.27;100.00;101860.16;5114899;28;20035;-85
2022/11/10 05:48:00;;;;;;;12.70;2.47;;;;;;;7.26;100.00;101874.66;5132390;27;20043;-85
2022/11/10 05:50:25;;;;;;;15.65;2.22;;;;;;;7.24;100.00;101882.91;5097813;28;20092;-84
2022/11/10 05:52:52;;;;;;;17.97;2.40;;;;;;;7.24;100.00;101891.00;5131719;27;20043;-84
2022/11/10 05:55:23;;;;;;;12.95;2.25;;;;;;;7.24;100.00;101892.88;5131666;27;20035;-85
2022/11/10 05:57:50;;;;;;;19.80;3.65;;;;;;;7.24;100.00;101898.28;5114661;28;20042;-85
2022/11/10 06:00:20;;;;;;;13.23;2.40;;;;;;;7.22;100.00;101892.19;5131757;27;20031;-85
2022/11/10 06:02:45;;;;;;;21.20;2.53;;;;;;;7.18;100.00;101897.09;5131828;27;20040;-85
2022/11/10 06:05:13;;;;;;;21.50;2.83;;;;;;;7.16;100.00;101894.56;5114536;28;20149;-85
2022/11/10 06:07:38;;;;;;;21.35;2.58;;;;;;;7.19;100.00;101904.19;5115513;28;20528;-85
2022/11/10 06:10:07;;;;;;;18.45;2.72;;;;;;;7.16;100.00;101908.06;5114564;28;20040;-85
2022/11/10 06:12:33;;;;;;;19.55;2.75;;;;;;;7.16;100.00;101915.28;5114608;28;20048;-84
2022/11/10 06:14:58;;;;;;;33.55;3.20;;;;;;;7.17;100.00;101925.91;5097954;28;20047;-85
2022/11/10 06:17:24;;;;;;;20.03;2.40;;;;;;;7.16;100.00;101926.09;5114612;28;20451;-85
2022/11/10 06:19:50;;;;;;;21.08;2.85;;;;;;;7.15;100.00;101924.41;5115663;28;20121;-85
2022/11/10 06:22:16;;;;;;;12.27;2.40;;;;;;;7.19;100.00;101923.06;5113956;28;20035;-85
2022/11/10 06:24:45;;;;;;;23.83;2.60;;;;;;;7.15;100.00;101927.94;5116059;28;20039;-84
2022/11/10 06:27:11;;;;;;;19.30;2.97;;;;;;;7.13;100.00;101932.69;5114090;28;20035;-85
2022/11/10 06:29:36;;;;;;;20.38;2.65;;;;;;;7.12;100.00;101928.28;5112980;28;20126;-84
2022/11/10 06:32:04;;;;;;;20.37;2.83;;;;;;;7.10;100.00;101934.84;5113911;28;20063;-87
2022/11/10 06:34:31;;;;;;;15.98;2.25;;;;;;;7.09;100.00;101933.19;5113513;28;20031;-87
2022/11/10 06:36:57;;;;;;;22.05;3.50;;;;;;;7.10;100.00;101940.25;5115200;28;20032;-87
2022/11/10 06:39:22;;;;;;;20.63;3.23;;;;;;;7.06;100.00;101953.25;5113079;28;20563;-87
2022/11/10 06:41:50;;;;;;;21.77;3.63;;;;;;;7.11;100.00;101963.53;5114003;28;20135;-87
2022/11/10 06:44:19;;;;;;;19.27;2.10;;;;;;;7.08;100.00;101964.72;5114334;28;20039;-87
2022/11/10 06:46:44;;;;;;;16.50;2.95;;;;;;;7.10;100.00;101964.53;5113579;28;20035;-84
2022/11/10 06:49:10;;;;;;;17.87;2.73;;;;;;;7.08;100.00;101964.72;5113813;28;20044;-85
2022/11/10 06:51:35;;;;;;;18.37;2.53;;;;;;;7.10;100.00;101975.34;5113059;28;20043;-85
2022/11/10 06:54:01;;;;;;;16.17;2.65;;;;;;;7.08;100.00;101983.59;5113240;28;20048;-86
2022/11/10 06:56:29;;;;;;;28.40;2.83;;;;;;;7.10;100.00;101987.00;5130505;27;20459;-84
2022/11/10 06:58:54;;;;;;;23.15;3.40;;;;;;;7.12;100.00;101987.66;5130599;27;20031;-85
2022/11/10 07:01:24;;;;;;;20.07;3.20;;;;;;;7.13;100.00;101989.38;5114876;28;20376;-84
2022/11/10 07:03:50;;;;;;;22.35;3.60;;;;;;;7.18;100.00;101988.88;5113563;28;20042;-85
2022/11/10 07:06:15;;;;;;;20.37;3.23;;;;;;;7.16;100.00;101989.03;5114109;28;20039;-86
2022/11/10 07:08:54;;;;;;;21.77;2.45;;;;;;;7.17;100.00;101990.69;5095602;28;20114;-85
2022/11/10 07:11:20;;;;;;;17.55;2.45;;;;;;;7.22;100.00;101990.22;5113856;28;20514;-85
2022/11/10 07:13:47;;;;;;;12.82;2.30;;;;;;;7.28;100.00;101996.78;5112975;28;20131;-86
2022/11/10 07:16:13;;;;;;;12.57;1.90;;;;;;;7.25;100.00;102006.09;5113072;28;20039;-85
2022/11/10 07:18:38;;;;;;;27.92;3.75;;;;;;;7.32;100.00;102020.63;5113637;28;20475;-86
2022/11/10 07:21:04;;;;;;;19.10;2.90;;;;;;;7.29;100.00;102028.19;5112515;28;20448;-85
2022/11/10 07:23:34;;;;;;;17.75;2.42;;;;;;;7.31;100.00;102024.31;5114216;28;20046;-86
2022/11/10 07:26:00;;;;;;;26.43;3.20;;;;;;;7.36;100.00;102026.53;5129739;27;20039;-85
2022/11/10 07:28:26;;;;;;;18.92;2.60;;;;;;;7.39;100.00;102028.88;5113540;28;20035;-85
2022/11/10 07:31:02;;;;;;;21.25;3.05;;;;;;;7.43;100.00;102035.66;5129562;27;20126;-86
2022/11/10 07:33:27;;;;;;;21.98;2.85;;;;;;;7.45;100.00;102052.53;5130571;27;20489;-85
2022/11/10 07:35:58;;;;;;;17.20;3.40;;;;;;;7.52;100.00;102052.72;5129266;27;20130;-85
2022/11/10 07:38:24;;;;;;;13.15;2.13;;;;;;;7.51;100.00;102043.78;5112283;28;20096;-86
2022/11/10 07:40:53;;;;;;;21.45;2.97;;;;;;;7.58;100.00;102043.13;5113094;28;20410;-86
2022/11/10 07:43:22;;;;;;;16.40;2.53;;;;;;;7.64;100.00;102051.38;5129114;27;20043;-86
2022/11/10 07:45:51;;;;;;;14.57;2.10;;;;;;;7.66;100.00;102046.69;5129459;27;20116;-85
2022/11/10 07:48:17;;;;;;;13.43;2.30;;;;;;;7.73;100.00;102044.97;5112370;28;20184;-85
2022/11/10 07:50:45;;;;;;;12.90;2.40;;;;;;;7.76;100.00;102045.66;5113583;28;20072;-85
2022/11/10 07:53:13;;;;;;;17.15;2.10;;;;;;;7.79;100.00;102051.56;5113592;28;20387;-86
2022/11/10 07:55:41;;;;;;;15.00;2.22;;;;;;;7.83;100.00;102052.09;5129711;28;20035;-86
2022/11/10 07:58:10;;;;;;;17.05;2.47;;;;;;;7.85;100.00;102060.88;5129401;28;20039;-87
2022/11/10 08:00:39;;;;;;;15.10;2.40;;;;;;;7.89;100.00;102056.81;5129793;28;20032;-86
2022/11/10 08:03:08;;;;;;;16.73;2.50;;;;;;;7.94;100.00;102067.13;5112587;28;20089;-86
2022/11/10 08:05:35;;;;;;;19.63;2.80;;;;;;;7.97;100.00;102078.47;5129716;28;20035;-87
2022/11/10 08:08:05;;;;;;;18.35;2.55;;;;;;;8.10;100.00;102072.53;5113690;28;20039;-86
2022/11/10 08:10:34;;;;;;;15.05;2.13;;;;;;;8.15;100.00;102074.72;5113066;28;20047;-86
2022/11/10 08:13:04;;;;;;;17.52;2.50;;;;;;;8.17;100.00;102087.06;5130390;28;20040;-85
2022/11/10 08:15:36;;;;;;;12.95;2.63;;;;;;;8.20;100.00;102089.44;5129528;28;20036;-85
2022/11/10 08:18:05;;;;;;;16.52;2.53;;;;;;;8.27;100.00;102097.72;5129739;28;20039;-83
2022/11/10 08:20:36;;;;;;;18.73;3.05;;;;;;;8.35;100.00;102105.81;5129703;28;20097;-85
2022/11/10 08:23:12;;;;;;;19.05;3.45;;;;;;;8.37;100.00;102101.09;5112416;28;20040;-85
2022/11/10 08:25:46;;;;;;;20.67;2.92;;;;;;;8.41;100.00;102102.44;5129845;28;20464;-86
2022/11/10 08:28:17;;;;;;;13.88;3.78;;;;;;;8.49;100.00;102111.59;5129714;28;20416;-85
2022/11/10 08:30:44;;;;;;;19.30;2.50;;;;;;;8.52;100.00;102106.69;5113316;28;20047;-85
2022/11/10 08:33:22;;;;;;;14.43;2.20;;;;;;;8.55;100.00;102111.75;5112466;28;20510;-88
2022/11/10 08:35:50;;;;;;;15.90;2.40;;;;;;;8.60;100.00;102112.06;5129750;28;20031;-86
2022/11/10 08:38:21;;;;;;;17.35;2.70;;;;;;;8.66;100.00;102113.25;5110733;28;20052;-84
2022/11/10 08:40:47;;;;;;;15.45;2.47;;;;;;;8.73;100.00;102111.56;5112336;28;20484;-84
2022/11/10 08:43:14;;;;;;;16.50;2.50;;;;;;;8.80;100.00;102113.56;5111974;28;20039;-85
2022/11/10 08:45:46;;;;;;;12.35;2.13;;;;;;;8.85;100.00;102109.31;5114013;28;20483;-85
2022/11/10 08:48:20;;;;;;;17.98;2.97;;;;;;;8.93;100.00;102112.03;5113277;28;20032;-85
2022/11/10 08:50:49;;;;;;;12.43;2.60;;;;;;;9.01;100.00;102111.16;5112146;28;20040;-85
2022/11/10 08:53:24;;;;;;;11.20;2.45;;;;;;;9.04;100.00;102118.09;5130415;27;20036;-85
2022/11/10 08:55:51;;;;;;;16.67;3.10;;;;;;;9.12;100.00;102131.56;5116682;27;20081;-86
2022/11/10 08:58:19;;;;;;;17.40;2.50;;;;;;;9.20;100.00;102125.31;5133046;27;20423;-85
2022/11/10 09:00:47;;;;;;;13.90;3.08;;;;;;;9.27;100.00;102128.97;5116155;28;20177;-85
2022/11/10 09:03:20;;;;;;;12.63;2.35;;;;;;;9.33;100.00;102127.44;5098859;28;20054;-85
2022/11/10 09:05:47;;;;;;;19.35;3.42;;;;;;;9.37;100.00;102140.44;5116944;28;20036;-85
2022/11/10 09:08:13;;;;;;;18.00;2.83;;;;;;;9.42;100.00;102134.50;5132901;27;20566;-85
2022/11/10 09:10:51;;;;;;;18.02;2.65;;;;;;;9.50;100.00;102141.78;5116246;28;20109;-85
2022/11/10 09:13:20;;;;;;;14.90;2.30;;;;;;;9.55;100.00;102142.94;5133300;27;20161;-85
2022/11/10 09:15:45;;;;;;;12.60;2.10;;;;;;;9.59;100.00;102141.53;5115908;27;20414;-85
2022/11/10 09:18:14;;;;;;;15.30;2.83;;;;;;;9.68;100.00;102161.31;5115690;28;20032;-85
2022/11/10 09:20:40;;;;;;;18.45;2.30;;;;;;;9.73;100.00;102161.63;5115131;28;20118;-84
2022/11/10 09:23:14;;;;;;;15.00;2.00;;;;;;;9.79;100.00;102158.22;5132640;27;20059;-85
2022/11/10 09:25:40;;;;;;;18.37;2.73;;;;;;;9.86;100.00;102154.78;5132869;27;20039;-85
2022/11/10 09:28:11;;;;;;;13.13;2.50;;;;;;;9.93;100.00;102153.03;5115824;28;20440;-85
2022/11/10 09:30:36;;;;;;;16.35;2.22;;;;;;;9.99;100.00;102153.19;5133211;27;20036;-85
2022/11/10 09:33:02;;;;;;;13.13;2.30;;;;;;;10.08;100.00;102148.53;5114870;28;20139;-85
2022/11/10 09:35:27;;;;;;;16.88;2.90;;;;;;;10.13;100.00;102146.13;5116512;28;20071;-85
2022/11/10 09:37:53;;;;;;;17.47;3.13;;;;;;;10.24;100.00;102154.88;5116198;28;20032;-85
2022/11/10 09:40:49;;;;;;;17.30;2.90;;;;;;;10.30;100.00;102157.69;5131763;27;20130;-85
2022/11/10 09:43:22;;;;;;;17.88;2.35;;;;;;;10.38;100.00;102145.97;5115137;28;20044;-85
2022/11/10 09:45:52;;;;;;;22.88;2.45;;;;;;;10.49;100.00;102156.38;5116209;28;20059;-85
2022/11/10 09:48:32;;;;;;;19.38;2.30;;;;;;;10.56;100.00;102158.38;5131435;27;20139;-86
2022/11/10 09:51:01;;;;;;;17.40;2.67;;;;;;;10.64;100.00;102169.16;5116202;28;20035;-85
2022/11/10 09:53:35;;;;;;;15.88;2.53;;;;;;;10.69;100.00;102166.75;5131509;27;20046;-85
2022/11/10 09:56:05;;;;;;;20.02;2.97;;;;;;;10.79;100.00;102170.03;5131405;27;20085;-84
2022/11/10 09:58:37;;;;;;;12.07;2.42;;;;;;;10.83;100.00;102168.63;5115282;28;20027;-85
2022/11/10 10:01:17;;;;;;;17.40;2.50;;;;;;;10.92;100.00;102163.94;5116358;28;20047;-85
2022/11/10 10:03:50;;;;;;;15.97;2.87;;;;;;;10.98;99.38;102160.47;5114290;28;20135;-85
2022/11/10 10:06:16;;;;;;;16.17;3.10;;;;;;;11.07;99.08;102169.38;5114735;28;20043;-85
2022/11/10 10:08:59;;;;;;;17.38;2.70;;;;;;;11.12;99.63;102168.84;5113997;28;20398;-85
2022/11/10 10:11:48;;;;;;;14.17;2.10;;;;;;;11.29;99.08;102172.22;5115683;28;20040;-85
2022/11/10 10:14:26;;;;;;;16.05;2.25;;;;;;;11.32;98.13;102166.41;5131742;27;20031;-85
2022/11/10 10:17:09;;;;;;;10.07;1.83;;;;;;;11.41;97.03;102179.72;5114688;28;20490;-85
2022/11/10 10:20:13;;;;;;;11.77;2.72;;;;;;;11.54;96.19;102168.16;5114481;28;20050;-85
2022/11/10 10:22:49;;;;;;;13.10;2.70;;;;;;;11.65;95.53;102183.16;5075992;28;20126;-85
2022/11/10 10:25:21;;;;;;;14.70;2.30;;;;;;;11.79;94.08;102189.59;5114471;28;20074;-85
2022/11/10 10:27:57;;;;;;;12.27;1.63;;;;;;;11.88;94.13;102193.88;5115406;28;20046;-85
2022/11/10 10:30:23;;;;;;;13.15;2.05;;;;;;;11.99;93.06;102189.88;5114265;28;20384;-86
2022/11/10 10:32:59;;;;;;;15.23;2.40;;;;;;;12.10;91.83;102188.50;5130989;27;20035;-85
2022/11/10 10:35:24;;;;;;;14.07;2.60;;;;;;;12.23;91.82;102196.81;5113729;28;20028;-85
2022/11/10 10:37:56;;;;;;;19.38;2.92;;;;;;;12.33;90.85;102209.25;5114050;28;20046;-85
2022/11/10 10:40:23;;;;;;;19.43;3.50;;;;;;;12.42;89.44;102219.00;5113861;28;20376;-86
2022/11/10 10:42:51;;;;;;;11.25;2.53;;;;;;;12.45;88.94;102218.59;5114149;28;20122;-85
2022/11/10 10:45:28;;;;;;;13.30;2.53;;;;;;;12.56;88.97;102230.84;5113880;28;20044;-85
2022/11/10 10:47:56;;;;;;;17.75;2.47;;;;;;;12.66;87.45;102234.06;5130875;27;20039;-85
2022/11/10 10:50:42;;;;;;;6.32;1.65;;;;;;;12.79;87.99;102231.47;5131562;27;20345;-86
2022/11/10 10:53:25;;;;;;;13.10;2.20;;;;;;;12.99;85.92;102236.22;5130613;27;20073;-84
2022/11/10 10:56:05;;;;;;;14.40;2.22;;;;;;;13.17;84.70;102222.13;5114470;28;20035;-85
2022/11/10 10:58:37;;;;;;;13.05;2.00;;;;;;;13.62;82.53;102222.63;5130587;27;20027;-85
2022/11/10 11:01:17;;;;;;;15.75;1.85;;;;;;;15.16;77.82;102247.53;5114346;28;20035;-84
2022/11/10 11:03:45;;;;;;;15.85;1.70;;;;;;;16.72;68.63;102228.31;5113609;28;20047;-85
2022/11/10 11:06:13;;;;;;;12.47;2.20;;;;;;;18.00;64.98;102233.38;5115218;28;20039;-86
2022/11/10 11:08:51;;;;;;;14.10;1.85;;;;;;;18.38;60.71;102219.31;5113062;28;20192;-85
2022/11/10 11:11:17;;;;;;;14.05;1.85;;;;;;;19.03;58.30;102212.16;5114135;28;20036;-86
2022/11/10 11:13:42;;;;;;;10.80;1.93;;;;;;;19.54;56.26;102212.44;5113266;28;20071;-86
2022/11/10 11:16:11;;;;;;;10.43;1.88;;;;;;;19.95;54.73;102212.47;5112553;28;20043;-85
2022/11/10 11:18:41;;;;;;;15.57;2.37;;;;;;;20.41;54.01;102229.03;5130304;27;20023;-85
2022/11/10 11:21:15;;;;;;;8.57;1.90;;;;;;;20.92;53.82;102223.56;5130677;27;20024;-86
2022/11/10 11:23:52;;;;;;;12.65;2.20;;;;;;;21.48;50.20;102224.41;5113414;28;20032;-86
2022/11/10 11:26:38;;;;;;;14.80;2.25;;;;;;;21.43;51.62;102216.03;5112841;28;20058;-85
2022/11/10 11:29:40;;;;;;;11.35;2.20;;;;;;;21.53;51.06;102220.91;5130567;27;20059;-85
2022/11/10 11:32:49;;;;;;;12.40;1.97;;;;;;;22.22;48.37;102220.31;5113372;28;20038;-86
2022/11/10 11:35:30;;;;;;;9.75;1.90;;;;;;;22.25;47.84;102222.56;5112761;28;20036;-87